KNFWKAEG

Guest
Details From KNFW - Fort Worth Nas Jrb
To KAEG - Albuquerque Double Eagle Ii
Flight Number -
Tags Generated
Created
Modified
Stats Distance 487 nm / 901 km
Max Altitude 0 ft / 0 m
Waypoints 4
Social Downloads 0
Likes 0
Share VATSIM

Download

Looking for another format? Having issues loading an existing format? Contact us
Advertisement - Login to hide

Notes

Generated

Route

KNFW JEKUT MARAE KAEG

ID Type Via Altitude Latitude Longitude Leg Dist Tot Dist Heading (true) Name
O KNFW APT - 0 ft / 0 m 32.78567˚ -97.44136˚ - 0 nm - -
JEKUT FIX - 0 ft / 0 m 34.04283˚ -101.90136˚ 235 nm 235 nm 290° / 287° -
MARAE FIX - 0 ft / 0 m 35.14583˚ -106.74717˚ 248 nm 484 nm 287° / 284° -
O KAEG APT - 0 ft / 0 m 35.15261˚ -106.78889˚ 2 nm 486 nm 281° / 281° Albuquerque Double Eagle II

Altitude Profile

Advertisement - Login to hide

Weather


0- 5 10 15 20 25 30 35+ Temperature / ° C

Clouds and Precipitation
Forecast for 2018-05-25 06:00 UTC. Updated 25 minutes ago

Ground ~20,000 ft ~40,000 ft Winds

KNFW

Details ICAO KNFW
Name FORT WORTH NAS JRB
Region United States
Timezone America/Chicago (UTC-5.0)
Stats Elevation 650 ft / 198 m (AMSL)
Location 32.769186° -97.441534°
Runways 1
Magnetic Variation 3.628° E

METAR

KNFW 250452Z 13007KT 10SM CLR 28/19 A3001 RMK AO2 SLP144 T02780189 $

Decode

TAF

TAF KNFW 2423/2523 18009KT 9999 FEW020 SCT250 QNH2992INS FM251000 19006KT 9999 FEW050 SCT250 QNH2996INS AUTOMATED SENSOR METWATCH 2504 TIL 2511 T22/2512Z T33/2523Z FN20047

Decode

Departure Runways

ID Width Length Bearing (true) Bearing (mag) Surface Threshold Offset Overrun Length
17 200 ft / 61 m 12,035 ft / 3,668 m 180.52° 176.89° Concrete 0 ft / 0 m 1,000 ft / 305 m
35 200 ft / 61 m 12,035 ft / 3,668 m 0.52° 356.89° Concrete 0 ft / 0 m 1,000 ft / 305 m

KAEG

Details ICAO KAEG
Name Albuquerque Double Eagle II
Region United States
Timezone America/Denver (UTC-6.0)
Stats Elevation 5,837 ft / 1,779 m (AMSL)
Location 35.145077° -106.794567°
Runways 2
Magnetic Variation 8.581° E

METAR

KAEG 250535Z AUTO 19008KT 10SM CLR 20/M06 A3014 RMK AO2 T01961061

Decode

TAF

TAF KAEG 242321Z 2500/2524 21010KT P6SM SCT150 FM250600 27008KT P6SM SKC FM251200 VRB06KT P6SM SKC FM251800 20008KT P6SM SKC

Decode

Destination Runways

ID Width Length Bearing (true) Bearing (mag) Surface Threshold Offset Overrun Length
04 98 ft / 30 m 7,399 ft / 2,255 m 46.04° 37.46° Asphalt 0 ft / 0 m 0 ft / 0 m
17 98 ft / 30 m 6,012 ft / 1,832 m 179.94° 171.36° Asphalt 0 ft / 0 m 151 ft / 46 m
22 98 ft / 30 m 7,399 ft / 2,255 m 226.06° 217.48° Asphalt 0 ft / 0 m 0 ft / 0 m
35 98 ft / 30 m 6,012 ft / 1,832 m 359.94° 351.36° Asphalt 0 ft / 0 m 0 ft / 0 m

Approach Navaids

Runway Type Ident Frequency Range Bearing (true) Bearing (mag) Slope Elevation
22 Localiser IAEG 110.10 MHz 18 nm / 33 km 226.05° 217.47° - 5,837 ft / 1,779 m (AMSL)
22 Glidescope IAEG 110.10 MHz 10 nm / 19 km 226.05° 217.47° 3.00° 5,837 ft / 1,779 m (AMSL)